Thunderstorms From: 23-05-2018 15:04 Until: 24-05-2018 15:00 warning for: Thunderstorms Level: Yellow info button

Although rather usual in this region, locally or potentially dangerous phenomena are expected. (such as local winds, summer thunderstorms, rising streams or high waves) Be aware and pay attention to the latest weather updates, especially if you carry out activities exposed to weather or close to a stream or shoreline. 


Meteo18 Weather Cam more information Meteo18 Weather Cam


warning for Thunderstorms more information blitzortung!


Rain radar more information rain snow radar


Visit our other weather sites:

Template documentation
and downloads

And another site



Weather Underground History page Text

Daily Summary for December 11, 2017 Units:  Both    English   Metric
« Previous Day
Next Day »
Daily Weekly Monthly Yearly Custom
  High: Low: Average:
Temperature: TemperatureC °F /  -17.8 °C 3.5 °F /  -15.8 °C 7.6 °F /  -13.6 °C
Dew Point: DewpointC °F /  -17.8 °C -0.2 °F /  -17.9 °C 4.4 °F /  -15.3 °C
Humidity: Humidity % 68 % 80 %
Wind Speed: WindSpeedKMH mph /  0 km/h - 21.2 mph /  34.1 km/h
Wind Gust: WindSpeedGustKMH mph /  0 km/h - -
Wind:- - SW
Pressure: PressurehPa in /  0 hPa 974.8 in /  33006.7 hPa -
Precipitation: 4.3 in /  109.22 mm    
Historical Graphs
 
 
Tabular Data for December 11, 2017
Time Temperature Dew Point Pressure Wind Wind Speed Wind Gust Humidity Rainfall Rate (Hourly)
TemperatureC °F /  -17.8 °C DewpointC °F /  -17.8 °C PressurehPa in /  0 hPa Calm     Humidity % HourlyPrecipMM in /  0 mm
00:02 7.4 °F /  -13.7 °C 6.2 °F /  -14.3 °C 985.0 in /  33352.1 hPa SSE 11.3 mph /  18.2 km/h 17.7 mph /  28.5 km/h 92 % 0.0 in /  0 mm
00:12 7.2 °F /  -13.8 °C 6.0 °F /  -14.4 °C 984.6 in /  33338.6 hPa South 8.0 mph /  12.9 km/h 19.3 mph /  31.1 km/h 92 % 0.0 in /  0 mm
00:17 7.2 °F /  -13.8 °C 6.0 °F /  -14.4 °C 984.6 in /  33338.6 hPa South 8.0 mph /  12.9 km/h 19.3 mph /  31.1 km/h 92 % 0.0 in /  0 mm
00:22 7.2 °F /  -13.8 °C 6.0 °F /  -14.4 °C 984.3 in /  33328.4 hPa SSE 8.0 mph /  12.9 km/h 19.3 mph /  31.1 km/h 92 % 0.0 in /  0 mm
00:27 7.2 °F /  -13.8 °C 6.1 °F /  -14.4 °C 984.3 in /  33328.4 hPa SSE 4.8 mph /  7.7 km/h 14.5 mph /  23.3 km/h 93 % 0.0 in /  0 mm
00:32 7.2 °F /  -13.8 °C 6.1 °F /  -14.4 °C 984.6 in /  33338.6 hPa SE 4.8 mph /  7.7 km/h 14.5 mph /  23.3 km/h 93 % 0.0 in /  0 mm
00:37 7.2 °F /  -13.8 °C 6.1 °F /  -14.4 °C 985.0 in /  33352.1 hPa South 6.4 mph /  10.3 km/h 12.9 mph /  20.8 km/h 93 % 0.0 in /  0 mm
00:47 7.2 °F /  -13.8 °C 6.1 °F /  -14.4 °C 984.3 in /  33328.4 hPa SE 1.6 mph /  2.6 km/h 12.9 mph /  20.8 km/h 93 % 0.0 in /  0 mm
00:52 7.2 °F /  -13.8 °C 6.1 °F /  -14.4 °C 984.0 in /  33318.2 hPa SE 1.6 mph /  2.6 km/h 16.1 mph /  25.9 km/h 93 % 0.0 in /  0 mm
00:57 7.2 °F /  -13.8 °C 6.1 °F /  -14.4 °C 983.6 in /  33304.7 hPa SE 4.8 mph /  7.7 km/h 16.1 mph /  25.9 km/h 93 % 0.0 in /  0 mm
01:02 7.2 °F /  -13.8 °C 6.3 °F /  -14.3 °C 983.6 in /  33304.7 hPa SE 4.8 mph /  7.7 km/h 16.1 mph /  25.9 km/h 94 % 0.0 in /  0 mm
01:12 7.2 °F /  -13.8 °C 6.3 °F /  -14.3 °C 983.3 in /  33294.5 hPa SE 4.8 mph /  7.7 km/h 12.9 mph /  20.8 km/h 94 % 0.0 in /  0 mm
01:22 7.2 °F /  -13.8 °C 6.3 °F /  -14.3 °C 983.3 in /  33294.5 hPa ESE 4.8 mph /  7.7 km/h 14.5 mph /  23.3 km/h 94 % 0.0 in /  0 mm
01:27 7.2 °F /  -13.8 °C 6.3 °F /  -14.3 °C 983.0 in /  33284.4 hPa SSE 8.0 mph /  12.9 km/h 16.1 mph /  25.9 km/h 94 % 0.0 in /  0 mm
01:32 7.3 °F /  -13.7 °C 6.4 °F /  -14.2 °C 983.0 in /  33284.4 hPa SE 6.4 mph /  10.3 km/h 19.3 mph /  31.1 km/h 94 % 0.0 in /  0 mm
01:37 7.3 °F /  -13.7 °C 6.4 °F /  -14.2 °C 982.6 in /  33270.8 hPa SSE 3.2 mph /  5.1 km/h 19.3 mph /  31.1 km/h 94 % 0.0 in /  0 mm
01:42 7.3 °F /  -13.7 °C 6.4 °F /  -14.2 °C 982.6 in /  33270.8 hPa SE 6.4 mph /  10.3 km/h 19.3 mph /  31.1 km/h 94 % 0.3 in /  7.62 mm
01:52 7.4 °F /  -13.7 °C 6.5 °F /  -14.2 °C 982.3 in /  33260.7 hPa SSE 9.7 mph /  15.6 km/h 20.9 mph /  33.6 km/h 94 % 0.3 in /  7.62 mm
01:57 7.3 °F /  -13.7 °C 6.2 °F /  -14.3 °C 981.9 in /  33247.1 hPa SSE 4.8 mph /  7.7 km/h 24.1 mph /  38.8 km/h 93 % 0.5 in /  12.7 mm
02:02 7.3 °F /  -13.7 °C 6.4 °F /  -14.2 °C 981.9 in /  33247.1 hPa SSE 3.2 mph /  5.1 km/h 24.1 mph /  38.8 km/h 94 % 0.5 in /  12.7 mm
02:07 7.3 °F /  -13.7 °C 6.4 °F /  -14.2 °C 981.9 in /  33247.1 hPa SSE 1.6 mph /  2.6 km/h 16.1 mph /  25.9 km/h 94 % 0.5 in /  12.7 mm
02:12 7.3 °F /  -13.7 °C 6.4 °F /  -14.2 °C 981.6 in /  33237 hPa SE 6.4 mph /  10.3 km/h 11.3 mph /  18.2 km/h 94 % 0.5 in /  12.7 mm
02:17 7.3 °F /  -13.7 °C 6.4 °F /  -14.2 °C 981.6 in /  33237 hPa SE 4.8 mph /  7.7 km/h 11.3 mph /  18.2 km/h 94 % 0.8 in /  20.32 mm
02:22 7.3 °F /  -13.7 °C 6.4 °F /  -14.2 °C 981.3 in /  33226.8 hPa SSE 3.2 mph /  5.1 km/h 11.3 mph /  18.2 km/h 94 % 0.8 in /  20.32 mm
02:27 7.3 °F /  -13.7 °C 6.4 °F /  -14.2 °C 980.9 in /  33213.3 hPa SSE 6.4 mph /  10.3 km/h 12.9 mph /  20.8 km/h 94 % 1.0 in /  25.4 mm
02:32 7.3 °F /  -13.7 °C 6.4 °F /  -14.2 °C 980.9 in /  33213.3 hPa SSE 11.3 mph /  18.2 km/h 12.9 mph /  20.8 km/h 94 % 1.3 in /  33.02 mm
02:37 7.3 °F /  -13.7 °C 6.4 °F /  -14.2 °C 980.9 in /  33213.3 hPa ESE 4.8 mph /  7.7 km/h 12.9 mph /  20.8 km/h 94 % 1.5 in /  38.1 mm
02:42 7.4 °F /  -13.7 °C 6.5 °F /  -14.2 °C 980.6 in /  33203.1 hPa ESE 8.0 mph /  12.9 km/h 14.5 mph /  23.3 km/h 94 % 1.3 in /  33.02 mm
02:47 7.4 °F /  -13.7 °C 6.5 °F /  -14.2 °C 980.6 in /  33203.1 hPa ESE 6.4 mph /  10.3 km/h 14.5 mph /  23.3 km/h 94 % 1.5 in /  38.1 mm
02:57 7.4 °F /  -13.7 °C 6.5 °F /  -14.2 °C 980.2 in /  33189.6 hPa SE 6.4 mph /  10.3 km/h 20.9 mph /  33.6 km/h 94 % 1.5 in /  38.1 mm
03:02 7.4 °F /  -13.7 °C 6.5 °F /  -14.2 °C 980.2 in /  33189.6 hPa SSE 4.8 mph /  7.7 km/h 20.9 mph /  33.6 km/h 94 % 1.5 in /  38.1 mm
03:12 7.5 °F /  -13.6 °C 6.6 °F /  -14.1 °C 979.9 in /  33179.4 hPa SE 4.8 mph /  7.7 km/h 19.3 mph /  31.1 km/h 94 % 1.5 in /  38.1 mm
03:22 7.6 °F /  -13.6 °C 6.7 °F /  -14.1 °C 979.6 in /  33169.3 hPa SE 4.8 mph /  7.7 km/h 16.1 mph /  25.9 km/h 94 % 1.5 in /  38.1 mm
03:32 7.7 °F /  -13.5 °C 6.8 °F /  -14 °C 978.9 in /  33145.6 hPa SE 9.7 mph /  15.6 km/h 17.7 mph /  28.5 km/h 94 % 1.5 in /  38.1 mm
03:42 7.7 °F /  -13.5 °C 6.8 °F /  -14 °C 978.6 in /  33135.4 hPa ESE 8.0 mph /  12.9 km/h 16.1 mph /  25.9 km/h 94 % 1.5 in /  38.1 mm
03:57 7.8 °F /  -13.4 °C 6.9 °F /  -13.9 °C 977.9 in /  33111.7 hPa SE 6.4 mph /  10.3 km/h 20.9 mph /  33.6 km/h 94 % 1.3 in /  33.02 mm
04:02 7.8 °F /  -13.4 °C 6.7 °F /  -14.1 °C 977.5 in /  33098.2 hPa SE 4.8 mph /  7.7 km/h 16.1 mph /  25.9 km/h 93 % 1.3 in /  33.02 mm
04:12 8.0 °F /  -13.3 °C 6.9 °F /  -13.9 °C 977.2 in /  33088 hPa SSE 11.3 mph /  18.2 km/h 17.7 mph /  28.5 km/h 93 % 1.0 in /  25.4 mm
04:17 8.1 °F /  -13.3 °C 7.0 °F /  -13.9 °C 977.2 in /  33088 hPa SE 9.7 mph /  15.6 km/h 17.7 mph /  28.5 km/h 93 % 0.8 in /  20.32 mm
04:32 8.1 °F /  -13.3 °C 7.0 °F /  -13.9 °C 976.5 in /  33064.3 hPa SSE 6.4 mph /  10.3 km/h 24.1 mph /  38.8 km/h 93 % 0.5 in /  12.7 mm
04:37 8.1 °F /  -13.3 °C 7.0 °F /  -13.9 °C 976.5 in /  33064.3 hPa SSE 6.4 mph /  10.3 km/h 22.5 mph /  36.2 km/h 93 % 0.5 in /  12.7 mm
04:42 8.2 °F /  -13.2 °C 7.1 °F /  -13.8 °C 976.2 in /  33054.1 hPa SSE 9.7 mph /  15.6 km/h 27.4 mph /  44.1 km/h 93 % 0.5 in /  12.7 mm
04:47 8.2 °F /  -13.2 °C 7.1 °F /  -13.8 °C 976.2 in /  33054.1 hPa South 11.3 mph /  18.2 km/h 27.4 mph /  44.1 km/h 93 % 0.5 in /  12.7 mm
04:52 8.3 °F /  -13.2 °C 7.2 °F /  -13.8 °C 975.8 in /  33040.6 hPa SSE 19.3 mph /  31.1 km/h 27.4 mph /  44.1 km/h 93 % 0.5 in /  12.7 mm
05:02 8.6 °F /  -13 °C 7.5 °F /  -13.6 °C 975.8 in /  33040.6 hPa South 11.3 mph /  18.2 km/h 22.5 mph /  36.2 km/h 93 % 0.3 in /  7.62 mm
05:12 8.7 °F /  -12.9 °C 7.5 °F /  -13.6 °C 975.5 in /  33030.4 hPa SE 8.0 mph /  12.9 km/h 24.1 mph /  38.8 km/h 92 % 0.5 in /  12.7 mm
05:17 8.7 °F /  -12.9 °C 7.5 °F /  -13.6 °C 975.2 in /  33020.3 hPa SE 9.7 mph /  15.6 km/h 24.1 mph /  38.8 km/h 92 % 0.5 in /  12.7 mm
05:22 8.8 °F /  -12.9 °C 7.6 °F /  -13.6 °C 974.8 in /  33006.7 hPa South 8.0 mph /  12.9 km/h 22.5 mph /  36.2 km/h 92 % 0.5 in /  12.7 mm
05:27 8.8 °F /  -12.9 °C 7.6 °F /  -13.6 °C 974.8 in /  33006.7 hPa SSE 9.7 mph /  15.6 km/h 25.7 mph /  41.4 km/h 92 % 0.5 in /  12.7 mm
05:32 8.8 °F /  -12.9 °C 7.6 °F /  -13.6 °C 974.8 in /  33006.7 hPa SSE 8.0 mph /  12.9 km/h 29.0 mph /  46.7 km/h 92 % 0.5 in /  12.7 mm
05:42 9.1 °F /  -12.7 °C 7.7 °F /  -13.5 °C 974.8 in /  33006.7 hPa SSE 8.0 mph /  12.9 km/h 29.0 mph /  46.7 km/h 91 % 0.5 in /  12.7 mm
05:47 9.3 °F /  -12.6 °C 7.9 °F /  -13.4 °C 974.8 in /  33006.7 hPa SSE 12.9 mph /  20.8 km/h 20.9 mph /  33.6 km/h 91 % 0.5 in /  12.7 mm
05:52 9.6 °F /  -12.4 °C 8.0 °F /  -13.3 °C 974.8 in /  33006.7 hPa South 16.1 mph /  25.9 km/h 24.1 mph /  38.8 km/h 90 % 0.5 in /  12.7 mm
05:57 9.7 °F /  -12.4 °C 8.0 °F /  -13.3 °C 974.8 in /  33006.7 hPa SE 14.5 mph /  23.3 km/h 27.4 mph /  44.1 km/h 89 % 0.3 in /  7.62 mm
06:07 9.6 °F /  -12.4 °C 7.9 °F /  -13.4 °C 975.2 in /  33020.3 hPa South 9.7 mph /  15.6 km/h 27.4 mph /  44.1 km/h 89 % 0.3 in /  7.62 mm
06:17 10.2 °F /  -12.1 °C 8.1 °F /  -13.3 °C 975.5 in /  33030.4 hPa SSW 12.9 mph /  20.8 km/h 24.1 mph /  38.8 km/h 87 % 0.0 in /  0 mm
06:27 11.3 °F /  -11.5 °C 8.3 °F /  -13.2 °C 975.5 in /  33030.4 hPa South 20.9 mph /  33.6 km/h 27.4 mph /  44.1 km/h 82 % 0.0 in /  0 mm
06:37 11.9 °F /  -11.2 °C 8.4 °F /  -13.1 °C 976.5 in /  33064.3 hPa SSW 37.0 mph /  59.5 km/h 45.1 mph /  72.6 km/h 79 % 0.0 in /  0 mm
06:42 11.8 °F /  -11.2 °C 8.3 °F /  -13.2 °C 976.5 in /  33064.3 hPa WSW 33.8 mph /  54.4 km/h 53.1 mph /  85.5 km/h 79 % 0.0 in /  0 mm
06:52 11.6 °F /  -11.3 °C 7.7 °F /  -13.5 °C 976.2 in /  33054.1 hPa SSW 16.1 mph /  25.9 km/h 56.3 mph /  90.6 km/h 77 % 0.0 in /  0 mm
06:57 11.4 °F /  -11.4 °C 7.7 °F /  -13.5 °C 976.2 in /  33054.1 hPa WSW 33.8 mph /  54.4 km/h 56.3 mph /  90.6 km/h 78 % 0.0 in /  0 mm
07:02 11.3 °F /  -11.5 °C 7.4 °F /  -13.7 °C 976.2 in /  33054.1 hPa SW 35.4 mph /  57 km/h 56.3 mph /  90.6 km/h 77 % 0.0 in /  0 mm
07:12 11.1 °F /  -11.6 °C 7.4 °F /  -13.7 °C 976.5 in /  33064.3 hPa SW 27.4 mph /  44.1 km/h 51.5 mph /  82.9 km/h 78 % 0.0 in /  0 mm
07:17 10.9 °F /  -11.7 °C 7.2 °F /  -13.8 °C 976.2 in /  33054.1 hPa SW 30.6 mph /  49.2 km/h 51.5 mph /  82.9 km/h 78 % 0.0 in /  0 mm
07:22 10.9 °F /  -11.7 °C 6.8 °F /  -14 °C 976.2 in /  33054.1 hPa SW 32.2 mph /  51.8 km/h 51.5 mph /  82.9 km/h 76 % 0.0 in /  0 mm
07:27 10.8 °F /  -11.8 °C 6.7 °F /  -14.1 °C 976.5 in /  33064.3 hPa SW 24.1 mph /  38.8 km/h 46.7 mph /  75.2 km/h 76 % 0.0 in /  0 mm
07:32 10.7 °F /  -11.8 °C 6.4 °F /  -14.2 °C 976.5 in /  33064.3 hPa SSW 22.5 mph /  36.2 km/h 46.7 mph /  75.2 km/h 75 % 0.0 in /  0 mm
07:42 10.7 °F /  -11.8 °C 6.1 °F /  -14.4 °C 976.5 in /  33064.3 hPa West 25.7 mph /  41.4 km/h 45.1 mph /  72.6 km/h 73 % 0.0 in /  0 mm
07:47 10.5 °F /  -11.9 °C 5.9 °F /  -14.5 °C 976.9 in /  33077.8 hPa SW 35.4 mph /  57 km/h 54.7 mph /  88 km/h 73 % 0.0 in /  0 mm
07:57 10.3 °F /  -12.1 °C 5.9 °F /  -14.5 °C 976.5 in /  33064.3 hPa SW 19.3 mph /  31.1 km/h 46.7 mph /  75.2 km/h 74 % 0.0 in /  0 mm
08:02 10.2 °F /  -12.1 °C 5.8 °F /  -14.6 °C 976.9 in /  33077.8 hPa SW 25.7 mph /  41.4 km/h 46.7 mph /  75.2 km/h 74 % 0.0 in /  0 mm
08:17 10.1 °F /  -12.2 °C 5.9 °F /  -14.5 °C 976.9 in /  33077.8 hPa SW 27.4 mph /  44.1 km/h 48.3 mph /  77.7 km/h 75 % 0.0 in /  0 mm
08:37 9.8 °F /  -12.3 °C 5.8 °F /  -14.6 °C 977.2 in /  33088 hPa SW 32.2 mph /  51.8 km/h 54.7 mph /  88 km/h 76 % 0.0 in /  0 mm
08:42 9.7 °F /  -12.4 °C 5.7 °F /  -14.6 °C 977.2 in /  33088 hPa SW 27.4 mph /  44.1 km/h 54.7 mph /  88 km/h 76 % 0.0 in /  0 mm
08:47 9.7 °F /  -12.4 °C 5.7 °F /  -14.6 °C 976.9 in /  33077.8 hPa SSW 32.2 mph /  51.8 km/h 54.7 mph /  88 km/h 76 % 0.0 in /  0 mm
08:52 9.6 °F /  -12.4 °C 5.8 °F /  -14.6 °C 976.9 in /  33077.8 hPa SSW 41.8 mph /  67.3 km/h 54.7 mph /  88 km/h 77 % 0.0 in /  0 mm
08:57 9.6 °F /  -12.4 °C 5.4 °F /  -14.8 °C 977.2 in /  33088 hPa SSW 27.4 mph /  44.1 km/h 53.1 mph /  85.5 km/h 75 % 0.0 in /  0 mm
09:07 9.4 °F /  -12.6 °C 5.4 °F /  -14.8 °C 976.9 in /  33077.8 hPa SSW 46.7 mph /  75.2 km/h 48.3 mph /  77.7 km/h 76 % 0.0 in /  0 mm
09:12 9.6 °F /  -12.4 °C 5.4 °F /  -14.8 °C 976.9 in /  33077.8 hPa SW 33.8 mph /  54.4 km/h 48.3 mph /  77.7 km/h 75 % 0.0 in /  0 mm
09:17 9.6 °F /  -12.4 °C 5.4 °F /  -14.8 °C 977.2 in /  33088 hPa SSW 35.4 mph /  57 km/h 56.3 mph /  90.6 km/h 75 % 0.0 in /  0 mm
09:27 9.5 °F /  -12.5 °C 5.3 °F /  -14.8 °C 977.2 in /  33088 hPa SSW 22.5 mph /  36.2 km/h 56.3 mph /  90.6 km/h 75 % 0.0 in /  0 mm
09:32 9.4 °F /  -12.6 °C 5.2 °F /  -14.9 °C 977.2 in /  33088 hPa SW 51.5 mph /  82.9 km/h 53.1 mph /  85.5 km/h 75 % 0.0 in /  0 mm
09:42 9.4 °F /  -12.6 °C 5.4 °F /  -14.8 °C 977.5 in /  33098.2 hPa SW 38.6 mph /  62.1 km/h 53.1 mph /  85.5 km/h 76 % 0.0 in /  0 mm
09:47 9.6 °F /  -12.4 °C 5.4 °F /  -14.8 °C 977.5 in /  33098.2 hPa SW 35.4 mph /  57 km/h 51.5 mph /  82.9 km/h 75 % 0.0 in /  0 mm
09:52 9.5 °F /  -12.5 °C 5.1 °F /  -14.9 °C 977.5 in /  33098.2 hPa SW 40.2 mph /  64.7 km/h 56.3 mph /  90.6 km/h 74 % 0.0 in /  0 mm
09:57 9.5 °F /  -12.5 °C 5.3 °F /  -14.8 °C 977.5 in /  33098.2 hPa SSW 35.4 mph /  57 km/h 56.3 mph /  90.6 km/h 75 % 0.0 in /  0 mm
10:02 9.5 °F /  -12.5 °C 5.1 °F /  -14.9 °C 977.5 in /  33098.2 hPa SW 35.4 mph /  57 km/h 56.3 mph /  90.6 km/h 74 % 0.0 in /  0 mm
10:12 9.6 °F /  -12.4 °C 5.0 °F /  -15 °C 977.9 in /  33111.7 hPa SW 32.2 mph /  51.8 km/h 53.1 mph /  85.5 km/h 73 % 0.0 in /  0 mm
10:17 9.5 °F /  -12.5 °C 5.1 °F /  -14.9 °C 977.9 in /  33111.7 hPa SW 40.2 mph /  64.7 km/h 54.7 mph /  88 km/h 74 % 0.0 in /  0 mm
10:32 9.5 °F /  -12.5 °C 4.9 °F /  -15.1 °C 977.5 in /  33098.2 hPa SSW 32.2 mph /  51.8 km/h 61.1 mph /  98.3 km/h 73 % 0.0 in /  0 mm
10:37 9.6 °F /  -12.4 °C 4.8 °F /  -15.1 °C 977.9 in /  33111.7 hPa SW 32.2 mph /  51.8 km/h 56.3 mph /  90.6 km/h 72 % 0.0 in /  0 mm
10:42 9.7 °F /  -12.4 °C 5.1 °F /  -14.9 °C 977.9 in /  33111.7 hPa SW 40.2 mph /  64.7 km/h 56.3 mph /  90.6 km/h 73 % 0.0 in /  0 mm
10:47 9.7 °F /  -12.4 °C 4.7 °F /  -15.2 °C 977.9 in /  33111.7 hPa SW 43.4 mph /  69.8 km/h 56.3 mph /  90.6 km/h 71 % 0.0 in /  0 mm
10:52 9.7 °F /  -12.4 °C 4.5 °F /  -15.3 °C 977.9 in /  33111.7 hPa SW 53.1 mph /  85.5 km/h 56.3 mph /  90.6 km/h 70 % 0.0 in /  0 mm
10:57 9.8 °F /  -12.3 °C 4.4 °F /  -15.3 °C 977.9 in /  33111.7 hPa SW 41.8 mph /  67.3 km/h 59.5 mph /  95.8 km/h 69 % 0.0 in /  0 mm
11:02 9.8 °F /  -12.3 °C 4.6 °F /  -15.2 °C 978.2 in /  33121.9 hPa SW 33.8 mph /  54.4 km/h 59.5 mph /  95.8 km/h 70 % 0.0 in /  0 mm
11:07 9.9 °F /  -12.3 °C 4.5 °F /  -15.3 °C 978.6 in /  33135.4 hPa SW 59.5 mph /  95.8 km/h 67.6 mph /  108.8 km/h 69 % 0.0 in /  0 mm
11:17 9.9 °F /  -12.3 °C 4.7 °F /  -15.2 °C 978.9 in /  33145.6 hPa SW 30.6 mph /  49.2 km/h 69.2 mph /  111.4 km/h 70 % 0.0 in /  0 mm
11:22 9.9 °F /  -12.3 °C 4.7 °F /  -15.2 °C 978.6 in /  33135.4 hPa SW 48.3 mph /  77.7 km/h 69.2 mph /  111.4 km/h 70 % 0.0 in /  0 mm
11:32 9.9 °F /  -12.3 °C 5.1 °F /  -14.9 °C 978.6 in /  33135.4 hPa SSW 37.0 mph /  59.5 km/h 64.4 mph /  103.6 km/h 72 % 0.0 in /  0 mm
11:37 10.0 °F /  -12.2 °C 5.0 °F /  -15 °C 978.6 in /  33135.4 hPa SW 37.0 mph /  59.5 km/h 64.4 mph /  103.6 km/h 71 % 0.0 in /  0 mm
11:42 10.0 °F /  -12.2 °C 4.8 °F /  -15.1 °C 978.6 in /  33135.4 hPa SW 32.2 mph /  51.8 km/h 61.1 mph /  98.3 km/h 70 % 0.0 in /  0 mm
11:47 10.1 °F /  -12.2 °C 5.5 °F /  -14.7 °C 978.6 in /  33135.4 hPa SSW 37.0 mph /  59.5 km/h 61.1 mph /  98.3 km/h 73 % 0.0 in /  0 mm
11:52 10.1 °F /  -12.2 °C 5.1 °F /  -14.9 °C 978.6 in /  33135.4 hPa SW 33.8 mph /  54.4 km/h 62.8 mph /  101.1 km/h 71 % 0.0 in /  0 mm
11:57 10.1 °F /  -12.2 °C 4.9 °F /  -15.1 °C 978.9 in /  33145.6 hPa WSW 35.4 mph /  57 km/h 62.8 mph /  101.1 km/h 70 % 0.0 in /  0 mm
12:02 10.1 °F /  -12.2 °C 5.5 °F /  -14.7 °C 978.9 in /  33145.6 hPa SW 27.4 mph /  44.1 km/h 64.4 mph /  103.6 km/h 73 % 0.0 in /  0 mm
12:12 9.9 °F /  -12.3 °C 4.9 °F /  -15.1 °C 978.6 in /  33135.4 hPa SW 30.6 mph /  49.2 km/h 69.2 mph /  111.4 km/h 71 % 0.0 in /  0 mm
12:17 9.9 °F /  -12.3 °C 4.9 °F /  -15.1 °C 978.9 in /  33145.6 hPa SW 33.8 mph /  54.4 km/h 66.0 mph /  106.2 km/h 71 % 0.0 in /  0 mm
12:22 9.9 °F /  -12.3 °C 4.9 °F /  -15.1 °C 978.9 in /  33145.6 hPa SW 46.7 mph /  75.2 km/h 66.0 mph /  106.2 km/h 71 % 0.0 in /  0 mm
12:32 10.1 °F /  -12.2 °C 4.5 °F /  -15.3 °C 978.9 in /  33145.6 hPa SW 27.4 mph /  44.1 km/h 70.8 mph /  113.9 km/h 68 % 0.0 in /  0 mm
12:37 10.1 °F /  -12.2 °C 4.7 °F /  -15.2 °C 978.6 in /  33135.4 hPa SW 54.7 mph /  88 km/h 70.8 mph /  113.9 km/h 69 % 0.0 in /  0 mm
12:42 10.0 °F /  -12.2 °C 4.6 °F /  -15.2 °C 978.2 in /  33121.9 hPa WSW 48.3 mph /  77.7 km/h 67.6 mph /  108.8 km/h 69 % 0.0 in /  0 mm
12:52 9.8 °F /  -12.3 °C 4.4 °F /  -15.3 °C 978.2 in /  33121.9 hPa South 27.4 mph /  44.1 km/h 70.8 mph /  113.9 km/h 69 % 0.0 in /  0 mm
13:12 9.7 °F /  -12.4 °C 4.5 °F /  -15.3 °C 977.9 in /  33111.7 hPa WSW 37.0 mph /  59.5 km/h 54.7 mph /  88 km/h 70 % 0.0 in /  0 mm
13:22 9.6 °F /  -12.4 °C 4.4 °F /  -15.3 °C 978.2 in /  33121.9 hPa SW 46.7 mph /  75.2 km/h 57.9 mph /  93.2 km/h 70 % 0.0 in /  0 mm
13:32 9.5 °F /  -12.5 °C 4.1 °F /  -15.5 °C 978.2 in /  33121.9 hPa West 22.5 mph /  36.2 km/h 62.8 mph /  101.1 km/h 69 % 0.0 in /  0 mm
13:47 9.3 °F /  -12.6 °C 4.3 °F /  -15.4 °C 978.2 in /  33121.9 hPa SW 30.6 mph /  49.2 km/h 64.4 mph /  103.6 km/h 71 % 0.0 in /  0 mm
13:57 9.1 °F /  -12.7 °C 4.5 °F /  -15.3 °C 978.6 in /  33135.4 hPa SW 38.6 mph /  62.1 km/h 66.0 mph /  106.2 km/h 73 % 0.0 in /  0 mm
14:02 9.0 °F /  -12.8 °C 4.6 °F /  -15.2 °C 978.9 in /  33145.6 hPa SW 29.0 mph /  46.7 km/h 66.0 mph /  106.2 km/h 74 % 0.0 in /  0 mm
14:12 8.9 °F /  -12.8 °C 4.5 °F /  -15.3 °C 978.9 in /  33145.6 hPa SW 35.4 mph /  57 km/h 53.1 mph /  85.5 km/h 74 % 0.0 in /  0 mm
14:17 8.9 °F /  -12.8 °C 4.7 °F /  -15.2 °C 978.9 in /  33145.6 hPa WSW 17.7 mph /  28.5 km/h 57.9 mph /  93.2 km/h 75 % 0.0 in /  0 mm
14:22 8.9 °F /  -12.8 °C 4.7 °F /  -15.2 °C 978.9 in /  33145.6 hPa WSW 27.4 mph /  44.1 km/h 62.8 mph /  101.1 km/h 75 % 0.0 in /  0 mm
14:32 8.9 °F /  -12.8 °C 4.9 °F /  -15.1 °C 979.2 in /  33155.7 hPa SSW 27.4 mph /  44.1 km/h 61.1 mph /  98.3 km/h 76 % 0.0 in /  0 mm
14:37 8.9 °F /  -12.8 °C 4.9 °F /  -15.1 °C 979.2 in /  33155.7 hPa WSW 33.8 mph /  54.4 km/h 66.0 mph /  106.2 km/h 76 % 0.0 in /  0 mm
14:42 8.9 °F /  -12.8 °C 4.9 °F /  -15.1 °C 979.2 in /  33155.7 hPa SW 45.1 mph /  72.6 km/h 66.0 mph /  106.2 km/h 76 % 0.0 in /  0 mm
14:52 8.9 °F /  -12.8 °C 4.9 °F /  -15.1 °C 979.2 in /  33155.7 hPa SW 51.5 mph /  82.9 km/h 57.9 mph /  93.2 km/h 76 % 0.0 in /  0 mm
14:57 8.9 °F /  -12.8 °C 4.7 °F /  -15.2 °C 979.2 in /  33155.7 hPa SW 27.4 mph /  44.1 km/h 51.5 mph /  82.9 km/h 75 % 0.0 in /  0 mm
15:07 8.8 °F /  -12.9 °C 4.6 °F /  -15.2 °C 979.6 in /  33169.3 hPa SW 24.1 mph /  38.8 km/h 61.1 mph /  98.3 km/h 75 % 0.0 in /  0 mm
15:12 8.7 °F /  -12.9 °C 4.9 °F /  -15.1 °C 979.9 in /  33179.4 hPa WSW 22.5 mph /  36.2 km/h 61.1 mph /  98.3 km/h 77 % 0.0 in /  0 mm
15:17 8.6 °F /  -13 °C 5.0 °F /  -15 °C 980.2 in /  33189.6 hPa SW 19.3 mph /  31.1 km/h 61.1 mph /  98.3 km/h 78 % 0.0 in /  0 mm
15:22 8.6 °F /  -13 °C 5.0 °F /  -15 °C 980.2 in /  33189.6 hPa SW 46.7 mph /  75.2 km/h 51.5 mph /  82.9 km/h 78 % 0.0 in /  0 mm
15:27 8.4 °F /  -13.1 °C 5.2 °F /  -14.9 °C 980.9 in /  33213.3 hPa WSW 40.2 mph /  64.7 km/h 51.5 mph /  82.9 km/h 80 % 0.0 in /  0 mm
15:32 7.2 °F /  -13.8 °C 4.8 °F /  -15.1 °C 980.9 in /  33213.3 hPa SW 19.3 mph /  31.1 km/h 70.8 mph /  113.9 km/h 85 % 0.3 in /  7.62 mm
15:37 6.9 °F /  -13.9 °C 4.6 °F /  -15.2 °C 980.9 in /  33213.3 hPa West 19.3 mph /  31.1 km/h 70.8 mph /  113.9 km/h 85 % 0.5 in /  12.7 mm
15:42 6.9 °F /  -13.9 °C 4.2 °F /  -15.4 °C 980.9 in /  33213.3 hPa West 20.9 mph /  33.6 km/h 70.8 mph /  113.9 km/h 83 % 0.5 in /  12.7 mm
15:52 7.0 °F /  -13.9 °C 3.8 °F /  -15.7 °C 980.9 in /  33213.3 hPa WSW 46.7 mph /  75.2 km/h 54.7 mph /  88 km/h 80 % 0.5 in /  12.7 mm
16:07 7.2 °F /  -13.8 °C 2.9 °F /  -16.2 °C 981.3 in /  33226.8 hPa WSW 29.0 mph /  46.7 km/h 67.6 mph /  108.8 km/h 74 % 0.5 in /  12.7 mm
16:12 7.1 °F /  -13.8 °C 2.8 °F /  -16.2 °C 981.6 in /  33237 hPa SW 17.7 mph /  28.5 km/h 67.6 mph /  108.8 km/h 74 % 0.5 in /  12.7 mm
16:17 7.1 °F /  -13.8 °C 3.0 °F /  -16.1 °C 981.6 in /  33237 hPa WSW 40.2 mph /  64.7 km/h 67.6 mph /  108.8 km/h 75 % 0.5 in /  12.7 mm
16:22 6.9 °F /  -13.9 °C 3.0 °F /  -16.1 °C 981.9 in /  33247.1 hPa SW 25.7 mph /  41.4 km/h 61.1 mph /  98.3 km/h 76 % 0.5 in /  12.7 mm
16:27 6.9 °F /  -13.9 °C 3.1 °F /  -16.1 °C 981.9 in /  33247.1 hPa SW 14.5 mph /  23.3 km/h 48.3 mph /  77.7 km/h 77 % 0.5 in /  12.7 mm
16:32 6.9 °F /  -13.9 °C 3.1 °F /  -16.1 °C 982.3 in /  33260.7 hPa West 16.1 mph /  25.9 km/h 51.5 mph /  82.9 km/h 77 % 0.0 in /  0 mm
16:37 6.8 °F /  -14 °C 3.2 °F /  -16 °C 982.6 in /  33270.8 hPa WSW 40.2 mph /  64.7 km/h 53.1 mph /  85.5 km/h 78 % 0.0 in /  0 mm
16:47 6.8 °F /  -14 °C 3.2 °F /  -16 °C 982.6 in /  33270.8 hPa SW 20.9 mph /  33.6 km/h 51.5 mph /  82.9 km/h 78 % 0.0 in /  0 mm
16:52 6.8 °F /  -14 °C 3.2 °F /  -16 °C 983.0 in /  33284.4 hPa WSW 20.9 mph /  33.6 km/h 51.5 mph /  82.9 km/h 78 % 0.0 in /  0 mm
16:57 6.8 °F /  -14 °C 3.1 °F /  -16.1 °C 983.0 in /  33284.4 hPa West 30.6 mph /  49.2 km/h 49.9 mph /  80.3 km/h 77 % 0.0 in /  0 mm
17:02 6.7 °F /  -14.1 °C 3.0 °F /  -16.1 °C 983.0 in /  33284.4 hPa West 38.6 mph /  62.1 km/h 53.1 mph /  85.5 km/h 77 % 0.0 in /  0 mm
17:07 6.6 °F /  -14.1 °C 2.7 °F /  -16.3 °C 983.3 in /  33294.5 hPa WSW 24.1 mph /  38.8 km/h 53.1 mph /  85.5 km/h 76 % 0.0 in /  0 mm
17:12 6.6 °F /  -14.1 °C 2.7 °F /  -16.3 °C 983.6 in /  33304.7 hPa SSW 16.1 mph /  25.9 km/h 46.7 mph /  75.2 km/h 76 % 0.0 in /  0 mm
17:22 6.4 °F /  -14.2 °C 3.0 °F /  -16.1 °C 984.0 in /  33318.2 hPa WSW 14.5 mph /  23.3 km/h 53.1 mph /  85.5 km/h 79 % 0.0 in /  0 mm
17:32 6.1 °F /  -14.4 °C 3.3 °F /  -15.9 °C 984.6 in /  33338.6 hPa SW 35.4 mph /  57 km/h 41.8 mph /  67.3 km/h 82 % 0.0 in /  0 mm
17:42 5.9 °F /  -14.5 °C 3.2 °F /  -16 °C 984.6 in /  33338.6 hPa West 14.5 mph /  23.3 km/h 45.1 mph /  72.6 km/h 83 % 0.0 in /  0 mm
17:47 5.9 °F /  -14.5 °C 3.2 °F /  -16 °C 985.0 in /  33352.1 hPa SW 8.0 mph /  12.9 km/h 45.1 mph /  72.6 km/h 83 % 0.0 in /  0 mm
17:52 5.9 °F /  -14.5 °C 3.1 °F /  -16.1 °C 985.3 in /  33362.3 hPa West 16.1 mph /  25.9 km/h 45.1 mph /  72.6 km/h 82 % 0.0 in /  0 mm
17:57 6.1 °F /  -14.4 °C 2.6 °F /  -16.3 °C 985.3 in /  33362.3 hPa WSW 29.0 mph /  46.7 km/h 33.8 mph /  54.4 km/h 78 % 0.0 in /  0 mm
18:02 6.1 °F /  -14.4 °C 2.4 °F /  -16.4 °C 985.3 in /  33362.3 hPa WSW 29.0 mph /  46.7 km/h 53.1 mph /  85.5 km/h 77 % 0.3 in /  7.62 mm
18:12 6.1 °F /  -14.4 °C 2.2 °F /  -16.6 °C 986.0 in /  33386 hPa WSW 20.9 mph /  33.6 km/h 45.1 mph /  72.6 km/h 76 % 0.3 in /  7.62 mm
18:17 6.0 °F /  -14.4 °C 1.9 °F /  -16.7 °C 986.0 in /  33386 hPa WNW 24.1 mph /  38.8 km/h 45.1 mph /  72.6 km/h 75 % 0.3 in /  7.62 mm
18:22 5.9 °F /  -14.5 °C 2.0 °F /  -16.7 °C 986.3 in /  33396.1 hPa West 17.7 mph /  28.5 km/h 46.7 mph /  75.2 km/h 76 % 0.3 in /  7.62 mm
18:27 5.9 °F /  -14.5 °C 2.0 °F /  -16.7 °C 986.3 in /  33396.1 hPa WSW 20.9 mph /  33.6 km/h 46.7 mph /  75.2 km/h 76 % 0.3 in /  7.62 mm
18:32 5.8 °F /  -14.6 °C 2.1 °F /  -16.6 °C 986.7 in /  33409.7 hPa WNW 25.7 mph /  41.4 km/h 46.7 mph /  75.2 km/h 77 % 0.3 in /  7.62 mm
18:42 5.6 °F /  -14.7 °C 1.9 °F /  -16.7 °C 987.0 in /  33419.8 hPa WSW 16.1 mph /  25.9 km/h 46.7 mph /  75.2 km/h 77 % 0.3 in /  7.62 mm
18:47 5.6 °F /  -14.7 °C 1.7 °F /  -16.8 °C 987.0 in /  33419.8 hPa West 25.7 mph /  41.4 km/h 46.7 mph /  75.2 km/h 76 % 0.3 in /  7.62 mm
18:57 5.3 °F /  -14.8 °C 1.6 °F /  -16.9 °C 987.7 in /  33443.5 hPa WNW 19.3 mph /  31.1 km/h 41.8 mph /  67.3 km/h 77 % 0.3 in /  7.62 mm
19:02 5.2 °F /  -14.9 °C 1.5 °F /  -16.9 °C 987.7 in /  33443.5 hPa WNW 24.1 mph /  38.8 km/h 48.3 mph /  77.7 km/h 77 % 0.0 in /  0 mm
19:07 5.1 °F /  -14.9 °C 1.6 °F /  -16.9 °C 988.0 in /  33453.7 hPa WNW 16.1 mph /  25.9 km/h 48.3 mph /  77.7 km/h 78 % 0.0 in /  0 mm
19:12 5.1 °F /  -14.9 °C 1.2 °F /  -17.1 °C 988.0 in /  33453.7 hPa WNW 32.2 mph /  51.8 km/h 45.1 mph /  72.6 km/h 76 % 0.0 in /  0 mm
19:17 5.0 °F /  -15 °C 1.3 °F /  -17.1 °C 988.4 in /  33467.2 hPa West 12.9 mph /  20.8 km/h 43.4 mph /  69.8 km/h 77 % 0.0 in /  0 mm
19:22 4.9 °F /  -15.1 °C 1.4 °F /  -17 °C 988.7 in /  33477.4 hPa WSW 24.1 mph /  38.8 km/h 43.4 mph /  69.8 km/h 78 % 0.0 in /  0 mm
19:27 4.9 °F /  -15.1 °C 1.4 °F /  -17 °C 988.7 in /  33477.4 hPa WSW 12.9 mph /  20.8 km/h 33.8 mph /  54.4 km/h 78 % 0.0 in /  0 mm
19:32 4.8 °F /  -15.1 °C 1.3 °F /  -17.1 °C 989.1 in /  33490.9 hPa West 17.7 mph /  28.5 km/h 40.2 mph /  64.7 km/h 78 % 0.0 in /  0 mm
19:37 4.7 °F /  -15.2 °C 1.4 °F /  -17 °C 989.1 in /  33490.9 hPa West 12.9 mph /  20.8 km/h 40.2 mph /  64.7 km/h 79 % 0.0 in /  0 mm
19:42 4.7 °F /  -15.2 °C 1.4 °F /  -17 °C 989.4 in /  33501.1 hPa West 22.5 mph /  36.2 km/h 29.0 mph /  46.7 km/h 79 % 0.0 in /  0 mm
19:47 4.5 °F /  -15.3 °C 1.4 °F /  -17 °C 989.7 in /  33511.2 hPa West 20.9 mph /  33.6 km/h 40.2 mph /  64.7 km/h 80 % 0.0 in /  0 mm
19:57 4.5 °F /  -15.3 °C 1.4 °F /  -17 °C 990.1 in /  33524.8 hPa WNW 12.9 mph /  20.8 km/h 40.2 mph /  64.7 km/h 80 % 0.0 in /  0 mm
20:07 4.3 °F /  -15.4 °C 1.2 °F /  -17.1 °C 990.4 in /  33534.9 hPa West 17.7 mph /  28.5 km/h 32.2 mph /  51.8 km/h 80 % 0.0 in /  0 mm
20:12 4.3 °F /  -15.4 °C 1.0 °F /  -17.2 °C 990.7 in /  33545.1 hPa West 16.1 mph /  25.9 km/h 32.2 mph /  51.8 km/h 79 % 0.0 in /  0 mm
20:17 4.3 °F /  -15.4 °C 0.8 °F /  -17.3 °C 991.1 in /  33558.6 hPa WSW 19.3 mph /  31.1 km/h 32.2 mph /  51.8 km/h 78 % 0.0 in /  0 mm
20:22 4.3 °F /  -15.4 °C 0.6 °F /  -17.4 °C 991.4 in /  33568.8 hPa WNW 16.1 mph /  25.9 km/h 41.8 mph /  67.3 km/h 77 % 0.0 in /  0 mm
20:32 4.3 °F /  -15.4 °C 0.3 °F /  -17.6 °C 991.8 in /  33582.3 hPa West 14.5 mph /  23.3 km/h 40.2 mph /  64.7 km/h 75 % 0.0 in /  0 mm
20:37 4.3 °F /  -15.4 °C 0.3 °F /  -17.6 °C 992.1 in /  33592.5 hPa West 20.9 mph /  33.6 km/h 40.2 mph /  64.7 km/h 75 % 0.0 in /  0 mm
20:42 4.2 °F /  -15.4 °C 0.0 °F /  -17.8 °C 992.1 in /  33592.5 hPa West 24.1 mph /  38.8 km/h 35.4 mph /  57 km/h 74 % 0.0 in /  0 mm
20:47 4.2 °F /  -15.4 °C -0.2 °F /  -17.9 °C 992.4 in /  33602.7 hPa West 19.3 mph /  31.1 km/h 35.4 mph /  57 km/h 73 % 0.0 in /  0 mm
20:52 4.2 °F /  -15.4 °C -0.2 °F /  -17.9 °C 992.8 in /  33616.2 hPa North 24.1 mph /  38.8 km/h 35.4 mph /  57 km/h 73 % 0.0 in /  0 mm
20:57 4.2 °F /  -15.4 °C 0.0 °F /  -17.8 °C 992.8 in /  33616.2 hPa WNW 35.4 mph /  57 km/h 35.4 mph /  57 km/h 74 % 0.0 in /  0 mm
21:02 4.2 °F /  -15.4 °C 0.2 °F /  -17.7 °C 993.1 in /  33626.4 hPa WNW 25.7 mph /  41.4 km/h 35.4 mph /  57 km/h 75 % 0.0 in /  0 mm
21:17 4.2 °F /  -15.4 °C 0.3 °F /  -17.6 °C 993.8 in /  33650.1 hPa NNW 14.5 mph /  23.3 km/h 38.6 mph /  62.1 km/h 76 % 0.0 in /  0 mm
21:22 4.2 °F /  -15.4 °C 0.5 °F /  -17.5 °C 994.1 in /  33660.2 hPa West 11.3 mph /  18.2 km/h 38.6 mph /  62.1 km/h 77 % 0.0 in /  0 mm
21:32 4.2 °F /  -15.4 °C 0.5 °F /  -17.5 °C 994.5 in /  33673.8 hPa WNW 16.1 mph /  25.9 km/h 25.7 mph /  41.4 km/h 77 % 0.0 in /  0 mm
21:42 4.2 °F /  -15.4 °C 0.3 °F /  -17.6 °C 994.5 in /  33673.8 hPa NW 6.4 mph /  10.3 km/h 30.6 mph /  49.2 km/h 76 % 0.0 in /  0 mm
21:57 4.2 °F /  -15.4 °C 0.5 °F /  -17.5 °C 995.1 in /  33694.1 hPa WNW 11.3 mph /  18.2 km/h 19.3 mph /  31.1 km/h 77 % 0.0 in /  0 mm
22:02 4.2 °F /  -15.4 °C 0.5 °F /  -17.5 °C 995.5 in /  33707.6 hPa WNW 16.1 mph /  25.9 km/h 25.7 mph /  41.4 km/h 77 % 0.0 in /  0 mm
22:17 4.2 °F /  -15.4 °C 0.5 °F /  -17.5 °C 996.2 in /  33731.3 hPa West 9.7 mph /  15.6 km/h 20.9 mph /  33.6 km/h 77 % 0.0 in /  0 mm
22:22 4.2 °F /  -15.4 °C 0.3 °F /  -17.6 °C 996.2 in /  33731.3 hPa WSW 4.8 mph /  7.7 km/h 19.3 mph /  31.1 km/h 76 % 0.0 in /  0 mm
22:32 4.1 °F /  -15.5 °C 0.6 °F /  -17.4 °C 996.8 in /  33751.6 hPa West 8.0 mph /  12.9 km/h 22.5 mph /  36.2 km/h 78 % 0.0 in /  0 mm
22:37 4.1 °F /  -15.5 °C 0.6 °F /  -17.4 °C 996.8 in /  33751.6 hPa WNW 9.7 mph /  15.6 km/h 20.9 mph /  33.6 km/h 78 % 0.0 in /  0 mm
22:42 4.1 °F /  -15.5 °C 0.8 °F /  -17.3 °C 997.2 in /  33765.2 hPa West 6.4 mph /  10.3 km/h 17.7 mph /  28.5 km/h 79 % 0.0 in /  0 mm
22:47 4.0 °F /  -15.6 °C 0.9 °F /  -17.3 °C 997.2 in /  33765.2 hPa WNW 4.8 mph /  7.7 km/h 17.7 mph /  28.5 km/h 80 % 0.0 in /  0 mm
23:02 3.7 °F /  -15.7 °C 0.9 °F /  -17.3 °C 997.9 in /  33788.9 hPa WNW 3.2 mph /  5.1 km/h 16.1 mph /  25.9 km/h 82 % 0.0 in /  0 mm
23:12 3.7 °F /  -15.7 °C 1.1 °F /  -17.2 °C 998.2 in /  33799.1 hPa West 3.2 mph /  5.1 km/h 16.1 mph /  25.9 km/h 83 % 0.0 in /  0 mm
23:22 3.6 °F /  -15.8 °C 1.2 °F /  -17.1 °C 998.5 in /  33809.2 hPa West 8.0 mph /  12.9 km/h 16.1 mph /  25.9 km/h 84 % 0.0 in /  0 mm
23:32 3.7 °F /  -15.7 °C 1.2 °F /  -17.1 °C 998.9 in /  33822.8 hPa West 11.3 mph /  18.2 km/h 12.9 mph /  20.8 km/h 84 % 0.0 in /  0 mm
23:37 3.7 °F /  -15.7 °C 1.2 °F /  -17.1 °C 999.2 in /  33832.9 hPa WSW 11.3 mph /  18.2 km/h 16.1 mph /  25.9 km/h 84 % 0.0 in /  0 mm
23:42 3.6 °F /  -15.8 °C 1.3 °F /  -17.1 °C 999.2 in /  33832.9 hPa WNW 1.6 mph /  2.6 km/h 16.1 mph /  25.9 km/h 85 % 0.0 in /  0 mm
23:47 3.6 °F /  -15.8 °C 1.3 °F /  -17.1 °C 999.5 in /  33843.1 hPa WNW 16.1 mph /  25.9 km/h 16.1 mph /  25.9 km/h 85 % 0.0 in /  0 mm
23:52 3.6 °F /  -15.8 °C 1.5 °F /  -16.9 °C 999.5 in /  33843.1 hPa WNW 4.8 mph /  7.7 km/h 17.7 mph /  28.5 km/h 86 % 0.0 in /  0 mm
23:57 3.5 °F /  -15.8 °C 1.4 °F /  -17 °C 999.5 in /  33843.1 hPa West 3.2 mph /  5.1 km/h 17.7 mph /  28.5 km/h 86 % 0.0 in /  0 mm
Meteo18
Compliments of Weather Underground - 4 mb

Script developed by  Jim McMurry - jmcmurry@mwt.net Adapted for the template by  Wim van der Kuil - Leuven-Template.eu

You find our weather info also at:

European Weather Network

Weather Underground

Equipment we use:

Weather-station
Davis Vue

Weather-program
Meteobridge

Weather-server
Raspberry PI 2 B+

Provider
1 and 1

Davis Vue

Meteobridge

Raspberry PI 2 B+

1 and 1